Maratha Promise — V7YE5 — position and weather

sailwx.info

Track history (hours):
 
Tides and Currents Weather Stations Pressure Air Temp Water Temp Dewpoint Dewpoint Depression Visibility Wind Speed Wind Dir Waves Ship Positions

Maratha Promise

Last reported at 2016-Aug-16 02:25 UTC. Time now 2016-Aug-23 20:58 UTC.
Position N 33°55' E 134°56'.

Length 178 m; draft 6.2 m.

Type: Cargo ship. MMSI: 538004641.

Date/timePositionNaut miles runAvg speedWind from/ knotsBaromVisibWave heightAir tempDewpointWater temp
2016-Aug-16 02:25N 33°55' E 134°56'1112.8
2016-Aug-16 01:32N 34°06' E 134°57'1312.3
2016-Aug-16 00:30N 34°18' E 134°59'1213.1
2016-Aug-15 23:33N 34°28' E 135°08'1312.7
2016-Aug-15 22:33N 34°33' E 135°23'2 0.7
2016-Aug-15 19:31N 34°31' E 135°25'0 0.0
2016-Aug-15 11:13N 34°31' E 135°25'0 0.0
2016-Aug-15 10:25N 34°31' E 135°25'0 0.0
2016-Aug-15 04:31N 34°31' E 135°25'0 0.0
2016-Aug-15 03:31N 34°31' E 135°25'0 0.0
2016-Aug-15 02:31N 34°31' E 135°25'0 0.0
2016-Aug-15 01:31N 34°31' E 135°25'0 0.0
2016-Aug-15 00:31N 34°31' E 135°25'0 0.0
2016-Aug-14 23:31N 34°31' E 135°25'0 0.1
2016-Aug-14 22:34N 34°31' E 135°25'4 4.1
2016-Aug-14 21:30N 34°34' E 135°21'0 0.0
2016-Aug-14 19:06N 34°34' E 135°21'0 0.1
2016-Aug-14 18:24N 34°34' E 135°21'0 0.0
2016-Aug-14 17:24N 34°34' E 135°21'0 0.1
2016-Aug-14 16:24N 34°34' E 135°21'0 0.0
2016-Aug-14 14:24N 34°34' E 135°21'0 0.0
2016-Aug-14 13:30N 34°34' E 135°21'0 0.0
2016-Aug-14 12:24N 34°34' E 135°21'0 0.1
2016-Aug-14 11:24N 34°34' E 135°21'0 0.1
2016-Aug-14 10:30N 34°34' E 135°21'0 0.0
2016-Aug-14 09:30N 34°34' E 135°21'0 0.1
2016-Aug-14 08:30N 34°34' E 135°21'0 0.0
2016-Aug-14 07:24N 34°34' E 135°21'0 0.0
2016-Aug-14 06:30N 34°34' E 135°21'0 0.0
2016-Aug-14 04:30N 34°34' E 135°21'0 0.0
2016-Aug-14 03:30N 34°34' E 135°21'0 0.0
2016-Aug-14 02:30N 34°34' E 135°21'0 0.0
2016-Aug-14 01:30N 34°34' E 135°21'0 0.0
2016-Aug-14 00:30N 34°34' E 135°21'0 0.0
2016-Aug-13 23:30N 34°34' E 135°21'0 0.1
2016-Aug-13 22:30N 34°34' E 135°21'0 0.0
2016-Aug-13 21:24N 34°34' E 135°21'0 0.1
2016-Aug-13 20:30N 34°34' E 135°21'0 0.0
2016-Aug-13 19:24N 34°34' E 135°21'0 0.0
2016-Aug-13 18:30N 34°34' E 135°21'0 0.0
2016-Aug-13 17:30N 34°34' E 135°21'0 0.0
2016-Aug-13 16:24N 34°34' E 135°21'0 0.0
2016-Aug-13 15:24N 34°34' E 135°21'0 0.1
2016-Aug-13 14:30N 34°34' E 135°21'0 0.0
2016-Aug-13 13:30N 34°34' E 135°21'0 0.0
2016-Aug-13 12:30N 34°34' E 135°21'0 0.0
2016-Aug-13 11:30N 34°34' E 135°21'0 0.0
2016-Aug-13 10:30N 34°34' E 135°21'0 0.0
2016-Aug-13 09:12N 34°34' E 135°21'1 2.0
2016-Aug-13 08:33N 34°35' E 135°20'7 6.7
2016-Aug-13 07:33N 34°40' E 135°26'0 0.2
2016-Aug-13 06:29N 34°40' E 135°27'0 0.0
2016-Aug-13 05:29N 34°40' E 135°27'0 0.0
2016-Aug-13 04:29N 34°40' E 135°27'0 0.0
2016-Aug-13 03:29N 34°40' E 135°27'0 0.0
2016-Aug-12 23:11N 34°40' E 135°27'0 0.0
2016-Aug-12 22:29N 34°40' E 135°27'0 0.0
2016-Aug-12 21:29N 34°40' E 135°27'0 0.0
2016-Aug-12 20:29N 34°40' E 135°27'0 0.0
2016-Aug-12 19:23N 34°40' E 135°27'0 0.0
2016-Aug-12 18:29N 34°40' E 135°27'0 0.0
2016-Aug-12 17:23N 34°40' E 135°27'0 0.0
2016-Aug-12 16:23N 34°40' E 135°27'0 0.0
2016-Aug-12 15:23N 34°40' E 135°27'0 0.0
2016-Aug-12 14:29N 34°40' E 135°27'0 0.0
2016-Aug-12 13:29N 34°40' E 135°27'0 0.0
2016-Aug-12 12:29N 34°40' E 135°27'0 0.0
2016-Aug-12 11:29N 34°40' E 135°27'0 0.0
2016-Aug-12 10:29N 34°40' E 135°27'0 0.0
2016-Aug-12 09:29N 34°40' E 135°27'0 0.5
2016-Aug-12 08:34N 34°40' E 135°26'6 6.0
2016-Aug-12 07:33N 34°39' E 135°19'4 3.6
2016-Aug-12 06:31N 34°42' E 135°18'0 0.0
2016-Aug-12 05:31N 34°42' E 135°18'0 0.0
2016-Aug-12 04:31N 34°42' E 135°18'0 0.0
2016-Aug-12 03:31N 34°42' E 135°18'0 0.0
2016-Aug-12 02:31N 34°42' E 135°18'0 0.0
2016-Aug-12 01:31N 34°42' E 135°18'0 0.0
2016-Aug-12 00:31N 34°42' E 135°18'0 0.0
2016-Aug-11 23:31N 34°42' E 135°18'0 0.3
2016-Aug-11 22:33N 34°42' E 135°18'6 5.9
2016-Aug-11 21:31N 34°37' E 135°13'0 0.0
2016-Aug-11 20:31N 34°37' E 135°13'0 0.0
2016-Aug-11 19:31N 34°37' E 135°13'0 0.0
2016-Aug-11 18:31N 34°37' E 135°13'0 0.0
2016-Aug-11 17:31N 34°37' E 135°13'0 0.0
2016-Aug-11 16:31N 34°37' E 135°13'0 0.0
2016-Aug-11 15:31N 34°37' E 135°13'0 0.0
2016-Aug-11 14:31N 34°37' E 135°13'0 0.0
2016-Aug-11 13:31N 34°37' E 135°13'0 0.0
2016-Aug-11 12:19N 34°37' E 135°13'0 0.2
2016-Aug-11 11:31N 34°37' E 135°13'0 0.1
2016-Aug-11 10:31N 34°37' E 135°13'0 0.0
2016-Aug-11 09:31N 34°37' E 135°13'0 0.0
2016-Aug-11 08:31N 34°37' E 135°13'0 0.1
2016-Aug-11 07:31N 34°37' E 135°13'0 0.0
2016-Aug-11 06:31N 34°37' E 135°13'0 0.0
2016-Aug-11 05:25N 34°37' E 135°13'0 0.1
2016-Aug-11 04:31N 34°37' E 135°13'0 0.0
2016-Aug-11 03:31N 34°37' E 135°13'0 0.0
2016-Aug-11 02:31N 34°37' E 135°13'0 0.1
2016-Aug-11 01:31N 34°37' E 135°13'0 0.1
2016-Aug-11 00:31N 34°37' E 135°13'0 0.0
2016-Aug-10 22:25N 34°37' E 135°13'0 0.0
2016-Aug-10 21:31N 34°37' E 135°13'0 0.0
2016-Aug-10 20:31N 34°37' E 135°13'0 0.0
2016-Aug-10 19:25N 34°37' E 135°13'0 0.0
2016-Aug-10 18:31N 34°37' E 135°13'0 0.0
2016-Aug-10 17:31N 34°37' E 135°13'0 0.0
2016-Aug-10 16:31N 34°37' E 135°13'0 0.0
2016-Aug-10 15:31N 34°37' E 135°13'0 0.0
2016-Aug-10 14:19N 34°37' E 135°13'0 0.0
2016-Aug-10 13:31N 34°37' E 135°13'0 0.0
2016-Aug-10 12:31N 34°37' E 135°13'0 0.1
2016-Aug-10 11:31N 34°37' E 135°13'0 0.2
2016-Aug-10 10:31N 34°37' E 135°13'0 0.0
2016-Aug-10 09:31N 34°37' E 135°13'0 0.1
2016-Aug-10 08:31N 34°37' E 135°13'3 3.1
2016-Aug-10 07:33N 34°34' E 135°14'1312.6
2016-Aug-10 06:33N 34°24' E 135°06'1212.0
2016-Aug-10 05:33N 34°13' E 134°59'1110.8
2016-Aug-10 04:33N 34°02' E 134°57'  
2016-Aug-06 16:33N 34°29' E 139°03'3310.5
2016-Aug-06 13:27N 34°55' E 139°28'1011.0
2016-Aug-06 12:31N 35°01' E 139°38'1010.0
2016-Aug-06 11:33N 35°09' E 139°45'1010.0
2016-Aug-06 10:33N 35°19' E 139°43'1010.4
2016-Aug-06 09:33N 35°29' E 139°47'4 3.7
2016-Aug-06 08:33N 35°29' E 139°43'0 0.0
2016-Aug-06 07:33N 35°29' E 139°43'0 0.0
2016-Aug-06 04:33N 35°29' E 139°43'0 0.0
2016-Aug-06 03:33N 35°29' E 139°43'0 0.0
2016-Aug-06 02:33N 35°29' E 139°43'  
Track history (hours):
 
Tides and Currents Weather Stations Pressure Air Temp Water Temp Dewpoint Dewpoint Depression Visibility Wind Speed Wind Dir Waves Ship Positions

Maratha Promise

Last reported at 2016-Aug-16 02:25 UTC. Time now 2016-Aug-23 20:58 UTC.
Position N 33°55' E 134°56'.

Length 178 m; draft 6.2 m.

Type: Cargo ship. MMSI: 538004641.

Date/timePositionNaut miles runAvg speedWind from/ knotsBaromVisibWave heightAir tempDewpointWater temp
2016-Aug-16 02:25N 33°55' E 134°56'1112.8
2016-Aug-16 01:32N 34°06' E 134°57'1312.3
2016-Aug-16 00:30N 34°18' E 134°59'1213.1
2016-Aug-15 23:33N 34°28' E 135°08'1312.7
2016-Aug-15 22:33N 34°33' E 135°23'2 0.7
2016-Aug-15 19:31N 34°31' E 135°25'0 0.0
2016-Aug-15 11:13N 34°31' E 135°25'0 0.0
2016-Aug-15 10:25N 34°31' E 135°25'0 0.0
2016-Aug-15 04:31N 34°31' E 135°25'0 0.0
2016-Aug-15 03:31N 34°31' E 135°25'0 0.0
2016-Aug-15 02:31N 34°31' E 135°25'0 0.0
2016-Aug-15 01:31N 34°31' E 135°25'0 0.0
2016-Aug-15 00:31N 34°31' E 135°25'0 0.0
2016-Aug-14 23:31N 34°31' E 135°25'0 0.1
2016-Aug-14 22:34N 34°31' E 135°25'4 4.1
2016-Aug-14 21:30N 34°34' E 135°21'0 0.0
2016-Aug-14 19:06N 34°34' E 135°21'0 0.1
2016-Aug-14 18:24N 34°34' E 135°21'0 0.0
2016-Aug-14 17:24N 34°34' E 135°21'0 0.1
2016-Aug-14 16:24N 34°34' E 135°21'0 0.0
2016-Aug-14 14:24N 34°34' E 135°21'0 0.0
2016-Aug-14 13:30N 34°34' E 135°21'0 0.0
2016-Aug-14 12:24N 34°34' E 135°21'0 0.1
2016-Aug-14 11:24N 34°34' E 135°21'0 0.1
2016-Aug-14 10:30N 34°34' E 135°21'0 0.0
2016-Aug-14 09:30N 34°34' E 135°21'0 0.1
2016-Aug-14 08:30N 34°34' E 135°21'0 0.0
2016-Aug-14 07:24N 34°34' E 135°21'0 0.0
2016-Aug-14 06:30N 34°34' E 135°21'0 0.0
2016-Aug-14 04:30N 34°34' E 135°21'0 0.0
2016-Aug-14 03:30N 34°34' E 135°21'0 0.0
2016-Aug-14 02:30N 34°34' E 135°21'0 0.0
2016-Aug-14 01:30N 34°34' E 135°21'0 0.0
2016-Aug-14 00:30N 34°34' E 135°21'0 0.0
2016-Aug-13 23:30N 34°34' E 135°21'0 0.1
2016-Aug-13 22:30N 34°34' E 135°21'0 0.0
2016-Aug-13 21:24N 34°34' E 135°21'0 0.1
2016-Aug-13 20:30N 34°34' E 135°21'0 0.0
2016-Aug-13 19:24N 34°34' E 135°21'0 0.0
2016-Aug-13 18:30N 34°34' E 135°21'0 0.0
2016-Aug-13 17:30N 34°34' E 135°21'0 0.0
2016-Aug-13 16:24N 34°34' E 135°21'0 0.0
2016-Aug-13 15:24N 34°34' E 135°21'0 0.1
2016-Aug-13 14:30N 34°34' E 135°21'0 0.0
2016-Aug-13 13:30N 34°34' E 135°21'0 0.0
2016-Aug-13 12:30N 34°34' E 135°21'0 0.0
2016-Aug-13 11:30N 34°34' E 135°21'0 0.0
2016-Aug-13 10:30N 34°34' E 135°21'0 0.0
2016-Aug-13 09:12N 34°34' E 135°21'1 2.0
2016-Aug-13 08:33N 34°35' E 135°20'7 6.7
2016-Aug-13 07:33N 34°40' E 135°26'0 0.2
2016-Aug-13 06:29N 34°40' E 135°27'0 0.0
2016-Aug-13 05:29N 34°40' E 135°27'0 0.0
2016-Aug-13 04:29N 34°40' E 135°27'0 0.0
2016-Aug-13 03:29N 34°40' E 135°27'0 0.0
2016-Aug-12 23:11N 34°40' E 135°27'0 0.0
2016-Aug-12 22:29N 34°40' E 135°27'0 0.0
2016-Aug-12 21:29N 34°40' E 135°27'0 0.0
2016-Aug-12 20:29N 34°40' E 135°27'0 0.0
2016-Aug-12 19:23N 34°40' E 135°27'0 0.0
2016-Aug-12 18:29N 34°40' E 135°27'0 0.0
2016-Aug-12 17:23N 34°40' E 135°27'0 0.0
2016-Aug-12 16:23N 34°40' E 135°27'0 0.0
2016-Aug-12 15:23N 34°40' E 135°27'0 0.0
2016-Aug-12 14:29N 34°40' E 135°27'0 0.0
2016-Aug-12 13:29N 34°40' E 135°27'0 0.0
2016-Aug-12 12:29N 34°40' E 135°27'0 0.0
2016-Aug-12 11:29N 34°40' E 135°27'0 0.0
2016-Aug-12 10:29N 34°40' E 135°27'0 0.0
2016-Aug-12 09:29N 34°40' E 135°27'0 0.5
2016-Aug-12 08:34N 34°40' E 135°26'6 6.0
2016-Aug-12 07:33N 34°39' E 135°19'4 3.6
2016-Aug-12 06:31N 34°42' E 135°18'0 0.0
2016-Aug-12 05:31N 34°42' E 135°18'0 0.0
2016-Aug-12 04:31N 34°42' E 135°18'0 0.0
2016-Aug-12 03:31N 34°42' E 135°18'0 0.0
2016-Aug-12 02:31N 34°42' E 135°18'0 0.0
2016-Aug-12 01:31N 34°42' E 135°18'0 0.0
2016-Aug-12 00:31N 34°42' E 135°18'0 0.0
2016-Aug-11 23:31N 34°42' E 135°18'0 0.3
2016-Aug-11 22:33N 34°42' E 135°18'6 5.9
2016-Aug-11 21:31N 34°37' E 135°13'0 0.0
2016-Aug-11 20:31N 34°37' E 135°13'0 0.0
2016-Aug-11 19:31N 34°37' E 135°13'0 0.0
2016-Aug-11 18:31N 34°37' E 135°13'0 0.0
2016-Aug-11 17:31N 34°37' E 135°13'0 0.0
2016-Aug-11 16:31N 34°37' E 135°13'0 0.0
2016-Aug-11 15:31N 34°37' E 135°13'0 0.0
2016-Aug-11 14:31N 34°37' E 135°13'0 0.0
2016-Aug-11 13:31N 34°37' E 135°13'0 0.0
2016-Aug-11 12:19N 34°37' E 135°13'0 0.2
2016-Aug-11 11:31N 34°37' E 135°13'0 0.1
2016-Aug-11 10:31N 34°37' E 135°13'0 0.0
2016-Aug-11 09:31N 34°37' E 135°13'0 0.0
2016-Aug-11 08:31N 34°37' E 135°13'0 0.1
2016-Aug-11 07:31N 34°37' E 135°13'0 0.0
2016-Aug-11 06:31N 34°37' E 135°13'0 0.0
2016-Aug-11 05:25N 34°37' E 135°13'0 0.1
2016-Aug-11 04:31N 34°37' E 135°13'0 0.0
2016-Aug-11 03:31N 34°37' E 135°13'0 0.0
2016-Aug-11 02:31N 34°37' E 135°13'0 0.1
2016-Aug-11 01:31N 34°37' E 135°13'0 0.1
2016-Aug-11 00:31N 34°37' E 135°13'0 0.0
2016-Aug-10 22:25N 34°37' E 135°13'0 0.0
2016-Aug-10 21:31N 34°37' E 135°13'0 0.0
2016-Aug-10 20:31N 34°37' E 135°13'0 0.0
2016-Aug-10 19:25N 34°37' E 135°13'0 0.0
2016-Aug-10 18:31N 34°37' E 135°13'0 0.0
2016-Aug-10 17:31N 34°37' E 135°13'0 0.0
2016-Aug-10 16:31N 34°37' E 135°13'0 0.0
2016-Aug-10 15:31N 34°37' E 135°13'0 0.0
2016-Aug-10 14:19N 34°37' E 135°13'0 0.0
2016-Aug-10 13:31N 34°37' E 135°13'0 0.0
2016-Aug-10 12:31N 34°37' E 135°13'0 0.1
2016-Aug-10 11:31N 34°37' E 135°13'0 0.2
2016-Aug-10 10:31N 34°37' E 135°13'0 0.0
2016-Aug-10 09:31N 34°37' E 135°13'0 0.1
2016-Aug-10 08:31N 34°37' E 135°13'3 3.1
2016-Aug-10 07:33N 34°34' E 135°14'1312.6
2016-Aug-10 06:33N 34°24' E 135°06'1212.0
2016-Aug-10 05:33N 34°13' E 134°59'1110.8
2016-Aug-10 04:33N 34°02' E 134°57'  
2016-Aug-06 16:33N 34°29' E 139°03'3310.5
2016-Aug-06 13:27N 34°55' E 139°28'1011.0
2016-Aug-06 12:31N 35°01' E 139°38'1010.0
2016-Aug-06 11:33N 35°09' E 139°45'1010.0
2016-Aug-06 10:33N 35°19' E 139°43'1010.4
2016-Aug-06 09:33N 35°29' E 139°47'4 3.7
2016-Aug-06 08:33N 35°29' E 139°43'0 0.0
2016-Aug-06 07:33N 35°29' E 139°43'0 0.0
2016-Aug-06 04:33N 35°29' E 139°43'0 0.0
2016-Aug-06 03:33N 35°29' E 139°43'0 0.0
2016-Aug-06 02:33N 35°29' E 139°43'  

Dump ship's entire track history